sensor_id;sensor_type;location;lat;lon;timestamp;P1;durP1;ratioP1;P2;durP2;ratioP2
12412;SDS011;13877;18.896;-99.222;2022-12-08T00:00:54;21.83;;;7.75;;
12412;SDS011;13877;18.896;-99.222;2022-12-08T00:03:28;16.98;;;8.45;;
12412;SDS011;13877;18.896;-99.222;2022-12-08T00:05:55;30.23;;;8.48;;
12412;SDS011;13877;18.896;-99.222;2022-12-08T00:08:41;20.85;;;7.35;;
12412;SDS011;13877;18.896;-99.222;2022-12-08T00:11:26;24.80;;;7.40;;
12412;SDS011;13877;18.896;-99.222;2022-12-08T00:13:53;26.35;;;7.85;;
12412;SDS011;13877;18.896;-99.222;2022-12-08T00:16:20;21.20;;;7.90;;
12412;SDS011;13877;18.896;-99.222;2022-12-08T00:18:47;19.15;;;7.40;;
12412;SDS011;13877;18.896;-99.222;2022-12-08T00:21:14;29.88;;;7.32;;
12412;SDS011;13877;18.896;-99.222;2022-12-08T00:23:41;16.95;;;6.95;;
12412;SDS011;13877;18.896;-99.222;2022-12-08T00:26:08;24.50;;;7.07;;
12412;SDS011;13877;18.896;-99.222;2022-12-08T00:28:35;25.23;;;8.20;;
12412;SDS011;13877;18.896;-99.222;2022-12-08T00:31:06;27.80;;;9.02;;
12412;SDS011;13877;18.896;-99.222;2022-12-08T00:33:33;30.05;;;10.95;;
12412;SDS011;13877;18.896;-99.222;2022-12-08T00:36:07;25.63;;;9.23;;
12412;SDS011;13877;18.896;-99.222;2022-12-08T00:38:36;30.83;;;9.02;;
12412;SDS011;13877;18.896;-99.222;2022-12-08T00:41:17;27.52;;;9.15;;
12412;SDS011;13877;18.896;-99.222;2022-12-08T00:44:08;32.80;;;9.23;;
12412;SDS011;13877;18.896;-99.222;2022-12-08T00:46:36;28.20;;;8.95;;
12412;SDS011;13877;18.896;-99.222;2022-12-08T00:49:03;26.30;;;10.30;;
12412;SDS011;13877;18.896;-99.222;2022-12-08T00:51:31;32.97;;;9.60;;
12412;SDS011;13877;18.896;-99.222;2022-12-08T00:53:59;19.08;;;8.90;;
12412;SDS011;13877;18.896;-99.222;2022-12-08T00:56:27;31.70;;;9.68;;
12412;SDS011;13877;18.896;-99.222;2022-12-08T00:58:54;19.20;;;9.45;;
12412;SDS011;13877;18.896;-99.222;2022-12-08T01:01:21;21.15;;;9.48;;
12412;SDS011;13877;18.896;-99.222;2022-12-08T01:03:48;30.73;;;10.68;;
12412;SDS011;13877;18.896;-99.222;2022-12-08T01:06:15;28.20;;;8.93;;
12412;SDS011;13877;18.896;-99.222;2022-12-08T01:08:42;28.35;;;10.57;;
12412;SDS011;13877;18.896;-99.222;2022-12-08T01:11:16;25.65;;;9.48;;
12412;SDS011;13877;18.896;-99.222;2022-12-08T01:13:44;24.35;;;9.00;;
12412;SDS011;13877;18.896;-99.222;2022-12-08T01:16:21;20.92;;;8.82;;
12412;SDS011;13877;18.896;-99.222;2022-12-08T01:18:56;21.40;;;7.97;;
12412;SDS011;13877;18.896;-99.222;2022-12-08T01:21:23;26.65;;;8.90;;
12412;SDS011;13877;18.896;-99.222;2022-12-08T01:23:52;22.40;;;8.35;;
12412;SDS011;13877;18.896;-99.222;2022-12-08T01:26:19;19.00;;;8.32;;
12412;SDS011;13877;18.896;-99.222;2022-12-08T01:28:46;22.10;;;8.27;;
12412;SDS011;13877;18.896;-99.222;2022-12-08T01:31:15;21.05;;;7.93;;
12412;SDS011;13877;18.896;-99.222;2022-12-08T01:33:45;19.08;;;7.70;;
12412;SDS011;13877;18.896;-99.222;2022-12-08T01:36:23;20.45;;;7.05;;
12412;SDS011;13877;18.896;-99.222;2022-12-08T01:38:52;18.38;;;7.55;;
12412;SDS011;13877;18.896;-99.222;2022-12-08T01:41:22;23.10;;;7.65;;
12412;SDS011;13877;18.896;-99.222;2022-12-08T01:46:35;27.95;;;7.57;;
12412;SDS011;13877;18.896;-99.222;2022-12-08T01:49:06;19.02;;;7.63;;
12412;SDS011;13877;18.896;-99.222;2022-12-08T01:51:41;25.10;;;7.88;;
12412;SDS011;13877;18.896;-99.222;2022-12-08T01:54:10;40.55;;;9.55;;
12412;SDS011;13877;18.896;-99.222;2022-12-08T01:56:45;25.75;;;8.02;;
12412;SDS011;13877;18.896;-99.222;2022-12-08T01:59:29;28.83;;;7.60;;
12412;SDS011;13877;18.896;-99.222;2022-12-08T02:02:00;25.08;;;7.30;;
12412;SDS011;13877;18.896;-99.222;2022-12-08T02:04:26;18.77;;;7.70;;
12412;SDS011;13877;18.896;-99.222;2022-12-08T02:06:53;24.00;;;9.40;;
12412;SDS011;13877;18.896;-99.222;2022-12-08T02:09:20;33.70;;;11.90;;
12412;SDS011;13877;18.896;-99.222;2022-12-08T02:11:48;55.35;;;13.52;;
12412;SDS011;13877;18.896;-99.222;2022-12-08T02:14:16;44.50;;;15.25;;
12412;SDS011;13877;18.896;-99.222;2022-12-08T02:16:57;34.08;;;12.93;;
12412;SDS011;13877;18.896;-99.222;2022-12-08T02:22:27;171.48;;;68.38;;
12412;SDS011;13877;18.896;-99.222;2022-12-08T02:25:12;1999.90;;;999.90;;
12412;SDS011;13877;18.896;-99.222;2022-12-08T02:44:57;1999.90;;;999.90;;
12412;SDS011;13877;18.896;-99.222;2022-12-08T02:47:49;1999.90;;;999.90;;
12412;SDS011;13877;18.896;-99.222;2022-12-08T02:50:17;35.17;;;17.50;;
12412;SDS011;13877;18.896;-99.222;2022-12-08T02:52:45;134.20;;;123.03;;
12412;SDS011;13877;18.896;-99.222;2022-12-08T02:58:11;1104.40;;;571.53;;
12412;SDS011;13877;18.896;-99.222;2022-12-08T03:04:03;1999.90;;;999.90;;
12412;SDS011;13877;18.896;-99.222;2022-12-08T03:12:15;1999.90;;;999.90;;
12412;SDS011;13877;18.896;-99.222;2022-12-08T03:14:47;22.00;;;7.40;;
12412;SDS011;13877;18.896;-99.222;2022-12-08T03:17:19;27.67;;;7.57;;
12412;SDS011;13877;18.896;-99.222;2022-12-08T03:19:49;16.52;;;7.20;;
12412;SDS011;13877;18.896;-99.222;2022-12-08T03:22:19;23.20;;;6.55;;
12412;SDS011;13877;18.896;-99.222;2022-12-08T03:24:50;16.75;;;6.97;;
12412;SDS011;13877;18.896;-99.222;2022-12-08T03:27:19;15.68;;;6.72;;
12412;SDS011;13877;18.896;-99.222;2022-12-08T03:29:49;13.17;;;6.27;;
12412;SDS011;13877;18.896;-99.222;2022-12-08T03:35:03;21.35;;;5.93;;
12412;SDS011;13877;18.896;-99.222;2022-12-08T03:37:35;18.00;;;5.97;;
12412;SDS011;13877;18.896;-99.222;2022-12-08T03:40:05;12.55;;;6.35;;
12412;SDS011;13877;18.896;-99.222;2022-12-08T03:42:34;15.77;;;6.20;;
12412;SDS011;13877;18.896;-99.222;2022-12-08T03:45:01;14.32;;;5.88;;
12412;SDS011;13877;18.896;-99.222;2022-12-08T03:47:29;12.25;;;6.05;;
12412;SDS011;13877;18.896;-99.222;2022-12-08T03:49:56;14.98;;;6.28;;
12412;SDS011;13877;18.896;-99.222;2022-12-08T03:52:22;15.48;;;6.40;;
12412;SDS011;13877;18.896;-99.222;2022-12-08T03:54:50;12.40;;;5.95;;
12412;SDS011;13877;18.896;-99.222;2022-12-08T03:57:16;17.10;;;5.80;;
12412;SDS011;13877;18.896;-99.222;2022-12-08T03:59:43;14.93;;;6.13;;
12412;SDS011;13877;18.896;-99.222;2022-12-08T04:02:10;13.77;;;6.05;;
12412;SDS011;13877;18.896;-99.222;2022-12-08T04:04:37;13.80;;;5.30;;
12412;SDS011;13877;18.896;-99.222;2022-12-08T04:07:04;13.32;;;5.50;;
12412;SDS011;13877;18.896;-99.222;2022-12-08T04:09:31;10.95;;;4.93;;
12412;SDS011;13877;18.896;-99.222;2022-12-08T04:11:58;13.57;;;5.20;;
12412;SDS011;13877;18.896;-99.222;2022-12-08T04:14:25;11.30;;;5.18;;
12412;SDS011;13877;18.896;-99.222;2022-12-08T04:16:53;20.83;;;5.18;;
12412;SDS011;13877;18.896;-99.222;2022-12-08T04:19:20;20.35;;;5.32;;
12412;SDS011;13877;18.896;-99.222;2022-12-08T04:21:46;12.18;;;5.15;;
12412;SDS011;13877;18.896;-99.222;2022-12-08T04:24:13;10.20;;;4.80;;
12412;SDS011;13877;18.896;-99.222;2022-12-08T04:26:40;9.07;;;5.07;;
12412;SDS011;13877;18.896;-99.222;2022-12-08T04:29:07;10.10;;;4.95;;
12412;SDS011;13877;18.896;-99.222;2022-12-08T04:31:34;11.27;;;4.65;;
12412;SDS011;13877;18.896;-99.222;2022-12-08T04:34:01;11.32;;;5.28;;
12412;SDS011;13877;18.896;-99.222;2022-12-08T04:36:28;13.43;;;4.80;;
12412;SDS011;13877;18.896;-99.222;2022-12-08T04:38:55;11.98;;;4.68;;
12412;SDS011;13877;18.896;-99.222;2022-12-08T04:41:22;16.48;;;5.00;;
12412;SDS011;13877;18.896;-99.222;2022-12-08T04:43:49;12.60;;;4.70;;
12412;SDS011;13877;18.896;-99.222;2022-12-08T04:46:16;13.15;;;4.32;;
12412;SDS011;13877;18.896;-99.222;2022-12-08T04:48:45;7.88;;;4.38;;
12412;SDS011;13877;18.896;-99.222;2022-12-08T04:51:15;13.38;;;3.65;;
12412;SDS011;13877;18.896;-99.222;2022-12-08T04:53:44;17.60;;;4.03;;
12412;SDS011;13877;18.896;-99.222;2022-12-08T04:56:12;7.32;;;4.00;;
12412;SDS011;13877;18.896;-99.222;2022-12-08T04:58:40;13.65;;;4.38;;
12412;SDS011;13877;18.896;-99.222;2022-12-08T05:01:07;9.70;;;4.03;;
12412;SDS011;13877;18.896;-99.222;2022-12-08T05:03:34;11.52;;;4.00;;
12412;SDS011;13877;18.896;-99.222;2022-12-08T05:06:01;16.63;;;3.88;;
12412;SDS011;13877;18.896;-99.222;2022-12-08T05:08:29;9.77;;;4.10;;
12412;SDS011;13877;18.896;-99.222;2022-12-08T05:11:07;12.82;;;4.00;;
12412;SDS011;13877;18.896;-99.222;2022-12-08T05:13:35;11.82;;;4.32;;
12412;SDS011;13877;18.896;-99.222;2022-12-08T05:16:03;12.23;;;4.13;;
12412;SDS011;13877;18.896;-99.222;2022-12-08T05:18:31;10.88;;;3.85;;
12412;SDS011;13877;18.896;-99.222;2022-12-08T05:20:58;9.15;;;3.95;;
12412;SDS011;13877;18.896;-99.222;2022-12-08T05:23:26;7.68;;;3.88;;
12412;SDS011;13877;18.896;-99.222;2022-12-08T05:25:53;6.95;;;3.65;;
12412;SDS011;13877;18.896;-99.222;2022-12-08T05:28:20;15.55;;;4.22;;
12412;SDS011;13877;18.896;-99.222;2022-12-08T05:30:48;6.50;;;3.70;;
12412;SDS011;13877;18.896;-99.222;2022-12-08T05:33:16;10.93;;;3.72;;
12412;SDS011;13877;18.896;-99.222;2022-12-08T05:35:43;7.38;;;3.40;;
12412;SDS011;13877;18.896;-99.222;2022-12-08T05:38:10;7.97;;;3.80;;
12412;SDS011;13877;18.896;-99.222;2022-12-08T05:40:37;8.10;;;3.65;;
12412;SDS011;13877;18.896;-99.222;2022-12-08T05:43:06;8.00;;;3.80;;
12412;SDS011;13877;18.896;-99.222;2022-12-08T05:45:33;7.57;;;3.85;;
12412;SDS011;13877;18.896;-99.222;2022-12-08T05:48:00;10.77;;;3.22;;
12412;SDS011;13877;18.896;-99.222;2022-12-08T05:50:26;9.20;;;3.83;;
12412;SDS011;13877;18.896;-99.222;2022-12-08T05:52:55;14.73;;;3.30;;
12412;SDS011;13877;18.896;-99.222;2022-12-08T05:55:22;7.68;;;3.30;;
12412;SDS011;13877;18.896;-99.222;2022-12-08T05:57:49;7.82;;;3.60;;
12412;SDS011;13877;18.896;-99.222;2022-12-08T06:00:16;7.35;;;3.20;;
12412;SDS011;13877;18.896;-99.222;2022-12-08T06:02:47;10.03;;;3.30;;
12412;SDS011;13877;18.896;-99.222;2022-12-08T06:05:13;7.25;;;3.10;;
12412;SDS011;13877;18.896;-99.222;2022-12-08T06:07:40;6.47;;;3.55;;
12412;SDS011;13877;18.896;-99.222;2022-12-08T06:10:07;11.15;;;3.83;;
12412;SDS011;13877;18.896;-99.222;2022-12-08T06:12:35;41.53;;;25.38;;
12412;SDS011;13877;18.896;-99.222;2022-12-08T06:15:02;9.82;;;3.83;;
12412;SDS011;13877;18.896;-99.222;2022-12-08T06:17:29;6.55;;;3.03;;
12412;SDS011;13877;18.896;-99.222;2022-12-08T06:19:56;9.68;;;3.70;;
12412;SDS011;13877;18.896;-99.222;2022-12-08T06:22:23;9.00;;;3.58;;
12412;SDS011;13877;18.896;-99.222;2022-12-08T06:24:50;28.58;;;21.52;;
12412;SDS011;13877;18.896;-99.222;2022-12-08T06:27:17;15.38;;;8.15;;
12412;SDS011;13877;18.896;-99.222;2022-12-08T06:29:43;8.25;;;3.33;;
12412;SDS011;13877;18.896;-99.222;2022-12-08T06:32:11;10.48;;;4.95;;
12412;SDS011;13877;18.896;-99.222;2022-12-08T06:34:38;8.65;;;2.92;;
12412;SDS011;13877;18.896;-99.222;2022-12-08T06:37:05;9.88;;;3.42;;
12412;SDS011;13877;18.896;-99.222;2022-12-08T06:39:32;7.70;;;3.70;;
12412;SDS011;13877;18.896;-99.222;2022-12-08T06:41:59;7.25;;;3.65;;
12412;SDS011;13877;18.896;-99.222;2022-12-08T06:44:44;7.07;;;3.65;;
12412;SDS011;13877;18.896;-99.222;2022-12-08T06:47:11;10.20;;;3.67;;
12412;SDS011;13877;18.896;-99.222;2022-12-08T06:49:38;12.13;;;3.58;;
12412;SDS011;13877;18.896;-99.222;2022-12-08T06:52:05;5.72;;;3.35;;
12412;SDS011;13877;18.896;-99.222;2022-12-08T06:54:32;9.23;;;3.30;;
12412;SDS011;13877;18.896;-99.222;2022-12-08T06:56:59;17.08;;;3.47;;
12412;SDS011;13877;18.896;-99.222;2022-12-08T06:59:26;10.80;;;3.88;;
12412;SDS011;13877;18.896;-99.222;2022-12-08T07:01:53;6.22;;;3.42;;
12412;SDS011;13877;18.896;-99.222;2022-12-08T07:04:20;6.18;;;3.28;;
12412;SDS011;13877;18.896;-99.222;2022-12-08T07:06:47;6.38;;;3.58;;
12412;SDS011;13877;18.896;-99.222;2022-12-08T07:09:14;7.97;;;3.40;;
12412;SDS011;13877;18.896;-99.222;2022-12-08T07:11:41;14.82;;;3.78;;
12412;SDS011;13877;18.896;-99.222;2022-12-08T07:14:08;9.50;;;3.55;;
12412;SDS011;13877;18.896;-99.222;2022-12-08T07:16:35;10.40;;;3.38;;
12412;SDS011;13877;18.896;-99.222;2022-12-08T07:19:04;5.22;;;3.00;;
12412;SDS011;13877;18.896;-99.222;2022-12-08T07:21:31;6.28;;;2.78;;
12412;SDS011;13877;18.896;-99.222;2022-12-08T07:23:58;9.07;;;2.92;;
12412;SDS011;13877;18.896;-99.222;2022-12-08T07:26:25;8.38;;;2.90;;
12412;SDS011;13877;18.896;-99.222;2022-12-08T07:28:52;6.40;;;2.97;;
12412;SDS011;13877;18.896;-99.222;2022-12-08T07:31:20;12.38;;;3.13;;
12412;SDS011;13877;18.896;-99.222;2022-12-08T07:33:49;7.82;;;2.92;;
12412;SDS011;13877;18.896;-99.222;2022-12-08T07:36:16;4.93;;;2.60;;
12412;SDS011;13877;18.896;-99.222;2022-12-08T07:38:44;6.20;;;2.78;;
12412;SDS011;13877;18.896;-99.222;2022-12-08T07:41:11;8.85;;;3.13;;
12412;SDS011;13877;18.896;-99.222;2022-12-08T07:43:43;14.52;;;3.13;;
12412;SDS011;13877;18.896;-99.222;2022-12-08T07:46:10;5.18;;;3.33;;
12412;SDS011;13877;18.896;-99.222;2022-12-08T07:48:38;5.75;;;2.83;;
12412;SDS011;13877;18.896;-99.222;2022-12-08T07:51:06;5.15;;;2.60;;
12412;SDS011;13877;18.896;-99.222;2022-12-08T07:53:33;5.90;;;3.35;;
12412;SDS011;13877;18.896;-99.222;2022-12-08T07:56:00;10.52;;;2.97;;
12412;SDS011;13877;18.896;-99.222;2022-12-08T07:58:31;6.30;;;3.13;;
12412;SDS011;13877;18.896;-99.222;2022-12-08T08:00:58;8.32;;;3.05;;
12412;SDS011;13877;18.896;-99.222;2022-12-08T08:03:25;12.93;;;3.30;;
12412;SDS011;13877;18.896;-99.222;2022-12-08T08:05:52;6.18;;;3.33;;
12412;SDS011;13877;18.896;-99.222;2022-12-08T08:08:19;6.15;;;3.13;;
12412;SDS011;13877;18.896;-99.222;2022-12-08T08:10:47;4.05;;;2.58;;
12412;SDS011;13877;18.896;-99.222;2022-12-08T08:13:14;7.43;;;2.75;;
12412;SDS011;13877;18.896;-99.222;2022-12-08T08:15:41;8.55;;;3.00;;
12412;SDS011;13877;18.896;-99.222;2022-12-08T08:18:08;10.02;;;3.22;;
12412;SDS011;13877;18.896;-99.222;2022-12-08T08:20:35;8.77;;;3.17;;
12412;SDS011;13877;18.896;-99.222;2022-12-08T08:23:02;6.40;;;2.72;;
12412;SDS011;13877;18.896;-99.222;2022-12-08T08:25:29;8.25;;;2.83;;
12412;SDS011;13877;18.896;-99.222;2022-12-08T08:27:56;6.88;;;3.22;;
12412;SDS011;13877;18.896;-99.222;2022-12-08T08:30:23;5.53;;;3.00;;
12412;SDS011;13877;18.896;-99.222;2022-12-08T08:32:50;8.63;;;3.25;;
12412;SDS011;13877;18.896;-99.222;2022-12-08T08:35:17;7.35;;;3.17;;
12412;SDS011;13877;18.896;-99.222;2022-12-08T08:37:47;7.85;;;3.25;;
12412;SDS011;13877;18.896;-99.222;2022-12-08T08:40:13;16.58;;;3.35;;
12412;SDS011;13877;18.896;-99.222;2022-12-08T08:42:41;6.18;;;3.20;;
12412;SDS011;13877;18.896;-99.222;2022-12-08T08:45:08;6.30;;;3.00;;
12412;SDS011;13877;18.896;-99.222;2022-12-08T08:47:35;5.05;;;3.03;;
12412;SDS011;13877;18.896;-99.222;2022-12-08T08:50:02;6.60;;;3.33;;
12412;SDS011;13877;18.896;-99.222;2022-12-08T08:52:30;7.75;;;3.10;;
12412;SDS011;13877;18.896;-99.222;2022-12-08T08:54:56;6.43;;;3.05;;
12412;SDS011;13877;18.896;-99.222;2022-12-08T08:57:23;8.38;;;2.90;;
12412;SDS011;13877;18.896;-99.222;2022-12-08T08:59:50;5.00;;;3.13;;
12412;SDS011;13877;18.896;-99.222;2022-12-08T09:02:17;8.88;;;3.28;;
12412;SDS011;13877;18.896;-99.222;2022-12-08T09:04:45;5.82;;;3.00;;
12412;SDS011;13877;18.896;-99.222;2022-12-08T09:07:13;11.27;;;3.58;;
12412;SDS011;13877;18.896;-99.222;2022-12-08T09:09:40;4.78;;;2.92;;
12412;SDS011;13877;18.896;-99.222;2022-12-08T09:12:09;7.40;;;3.35;;
12412;SDS011;13877;18.896;-99.222;2022-12-08T09:14:36;5.30;;;3.08;;
12412;SDS011;13877;18.896;-99.222;2022-12-08T09:17:03;13.20;;;4.50;;
12412;SDS011;13877;18.896;-99.222;2022-12-08T09:19:31;7.10;;;3.10;;
12412;SDS011;13877;18.896;-99.222;2022-12-08T09:21:59;6.40;;;3.33;;
12412;SDS011;13877;18.896;-99.222;2022-12-08T09:24:25;9.32;;;2.80;;
12412;SDS011;13877;18.896;-99.222;2022-12-08T09:26:53;8.13;;;3.50;;
12412;SDS011;13877;18.896;-99.222;2022-12-08T09:29:20;7.35;;;3.38;;
12412;SDS011;13877;18.896;-99.222;2022-12-08T09:31:47;7.95;;;3.53;;
12412;SDS011;13877;18.896;-99.222;2022-12-08T09:34:14;11.18;;;3.60;;
12412;SDS011;13877;18.896;-99.222;2022-12-08T09:36:42;8.65;;;3.67;;
12412;SDS011;13877;18.896;-99.222;2022-12-08T09:39:09;10.48;;;3.97;;
12412;SDS011;13877;18.896;-99.222;2022-12-08T09:48:04;11.10;;;3.60;;
12412;SDS011;13877;18.896;-99.222;2022-12-08T09:50:28;15.27;;;4.03;;
12412;SDS011;13877;18.896;-99.222;2022-12-08T09:53:02;10.93;;;3.92;;
12412;SDS011;13877;18.896;-99.222;2022-12-08T09:55:39;13.45;;;3.65;;
12412;SDS011;13877;18.896;-99.222;2022-12-08T09:58:12;14.57;;;4.18;;
12412;SDS011;13877;18.896;-99.222;2022-12-08T10:00:47;7.73;;;3.20;;
12412;SDS011;13877;18.896;-99.222;2022-12-08T10:03:14;11.23;;;3.30;;
12412;SDS011;13877;18.896;-99.222;2022-12-08T10:05:44;13.32;;;3.70;;
12412;SDS011;13877;18.896;-99.222;2022-12-08T10:08:18;9.00;;;3.40;;
12412;SDS011;13877;18.896;-99.222;2022-12-08T10:10:55;9.63;;;4.13;;
12412;SDS011;13877;18.896;-99.222;2022-12-08T10:18:36;12.32;;;3.85;;
12412;SDS011;13877;18.896;-99.222;2022-12-08T10:21:13;14.98;;;3.95;;
12412;SDS011;13877;18.896;-99.222;2022-12-08T10:23:53;11.15;;;3.65;;
12412;SDS011;13877;18.896;-99.222;2022-12-08T10:26:26;9.55;;;3.78;;
12412;SDS011;13877;18.896;-99.222;2022-12-08T10:29:00;7.80;;;3.35;;
12412;SDS011;13877;18.896;-99.222;2022-12-08T10:31:28;8.27;;;3.60;;
12412;SDS011;13877;18.896;-99.222;2022-12-08T10:33:58;8.93;;;3.70;;
12412;SDS011;13877;18.896;-99.222;2022-12-08T10:36:45;12.70;;;4.35;;
12412;SDS011;13877;18.896;-99.222;2022-12-08T10:42:17;8.35;;;4.35;;
12412;SDS011;13877;18.896;-99.222;2022-12-08T10:47:26;8.70;;;3.63;;
12412;SDS011;13877;18.896;-99.222;2022-12-08T10:56:19;11.80;;;3.92;;
12412;SDS011;13877;18.896;-99.222;2022-12-08T11:03:36;6.40;;;3.78;;
12412;SDS011;13877;18.896;-99.222;2022-12-08T11:08:55;7.40;;;4.10;;
12412;SDS011;13877;18.896;-99.222;2022-12-08T11:11:37;14.07;;;4.78;;
12412;SDS011;13877;18.896;-99.222;2022-12-08T11:14:14;13.40;;;4.28;;
12412;SDS011;13877;18.896;-99.222;2022-12-08T11:16:41;13.63;;;4.57;;
12412;SDS011;13877;18.896;-99.222;2022-12-08T11:19:12;18.10;;;4.28;;
12412;SDS011;13877;18.896;-99.222;2022-12-08T11:21:44;12.57;;;4.15;;
12412;SDS011;13877;18.896;-99.222;2022-12-08T11:27:02;12.98;;;4.60;;
12412;SDS011;13877;18.896;-99.222;2022-12-08T11:29:32;12.02;;;4.57;;
12412;SDS011;13877;18.896;-99.222;2022-12-08T11:32:05;7.47;;;4.97;;
12412;SDS011;13877;18.896;-99.222;2022-12-08T11:34:44;21.48;;;5.68;;
12412;SDS011;13877;18.896;-99.222;2022-12-08T11:37:34;13.25;;;5.15;;
12412;SDS011;13877;18.896;-99.222;2022-12-08T11:40:15;12.70;;;5.10;;
12412;SDS011;13877;18.896;-99.222;2022-12-08T11:42:52;12.27;;;5.45;;
12412;SDS011;13877;18.896;-99.222;2022-12-08T11:45:34;10.90;;;5.30;;
12412;SDS011;13877;18.896;-99.222;2022-12-08T11:48:07;17.73;;;5.47;;
12412;SDS011;13877;18.896;-99.222;2022-12-08T11:50:51;21.73;;;5.10;;
12412;SDS011;13877;18.896;-99.222;2022-12-08T11:56:36;10.15;;;4.93;;
12412;SDS011;13877;18.896;-99.222;2022-12-08T12:01:33;9.68;;;5.30;;
12412;SDS011;13877;18.896;-99.222;2022-12-08T12:18:46;20.58;;;6.40;;
12412;SDS011;13877;18.896;-99.222;2022-12-08T12:23:55;20.17;;;6.75;;
12412;SDS011;13877;18.896;-99.222;2022-12-08T12:26:28;13.27;;;6.45;;
12412;SDS011;13877;18.896;-99.222;2022-12-08T12:29:02;17.92;;;6.65;;
12412;SDS011;13877;18.896;-99.222;2022-12-08T12:31:41;14.60;;;6.50;;
12412;SDS011;13877;18.896;-99.222;2022-12-08T12:37:17;17.20;;;7.28;;
12412;SDS011;13877;18.896;-99.222;2022-12-08T12:47:47;14.13;;;6.82;;
12412;SDS011;13877;18.896;-99.222;2022-12-08T12:52:59;19.05;;;7.78;;
12412;SDS011;13877;18.896;-99.222;2022-12-08T12:58:19;14.90;;;6.88;;
12412;SDS011;13877;18.896;-99.222;2022-12-08T13:06:04;21.75;;;7.53;;
12412;SDS011;13877;18.896;-99.222;2022-12-08T13:08:31;17.92;;;7.53;;
12412;SDS011;13877;18.896;-99.222;2022-12-08T13:10:59;16.23;;;6.85;;
12412;SDS011;13877;18.896;-99.222;2022-12-08T13:13:38;22.50;;;7.80;;
12412;SDS011;13877;18.896;-99.222;2022-12-08T13:16:23;18.73;;;8.32;;
12412;SDS011;13877;18.896;-99.222;2022-12-08T13:18:55;14.18;;;7.63;;
12412;SDS011;13877;18.896;-99.222;2022-12-08T13:21:36;14.00;;;6.95;;
12412;SDS011;13877;18.896;-99.222;2022-12-08T13:29:33;14.48;;;6.68;;
12412;SDS011;13877;18.896;-99.222;2022-12-08T13:32:03;14.73;;;8.13;;
12412;SDS011;13877;18.896;-99.222;2022-12-08T13:34:56;20.08;;;6.40;;
12412;SDS011;13877;18.896;-99.222;2022-12-08T13:37:35;17.75;;;6.38;;
12412;SDS011;13877;18.896;-99.222;2022-12-08T13:40:14;14.77;;;6.38;;
12412;SDS011;13877;18.896;-99.222;2022-12-08T13:43:04;22.48;;;9.43;;
12412;SDS011;13877;18.896;-99.222;2022-12-08T13:45:40;17.45;;;9.48;;
12412;SDS011;13877;18.896;-99.222;2022-12-08T13:51:18;482.88;;;445.85;;
12412;SDS011;13877;18.896;-99.222;2022-12-08T13:54:09;1999.90;;;999.90;;
12412;SDS011;13877;18.896;-99.222;2022-12-08T13:56:39;1999.90;;;999.90;;
12412;SDS011;13877;18.896;-99.222;2022-12-08T14:01:48;18.50;;;8.77;;
12412;SDS011;13877;18.896;-99.222;2022-12-08T14:04:17;18.73;;;7.13;;
12412;SDS011;13877;18.896;-99.222;2022-12-08T14:06:47;17.27;;;8.17;;
12412;SDS011;13877;18.896;-99.222;2022-12-08T14:09:16;16.08;;;7.90;;
12412;SDS011;13877;18.896;-99.222;2022-12-08T14:11:49;12.53;;;7.97;;
12412;SDS011;13877;18.896;-99.222;2022-12-08T14:14:30;28.67;;;8.55;;
12412;SDS011;13877;18.896;-99.222;2022-12-08T14:16:59;17.40;;;8.32;;
12412;SDS011;13877;18.896;-99.222;2022-12-08T14:19:29;15.32;;;8.93;;
12412;SDS011;13877;18.896;-99.222;2022-12-08T14:21:58;24.00;;;11.88;;
12412;SDS011;13877;18.896;-99.222;2022-12-08T14:24:37;15.32;;;8.75;;
12412;SDS011;13877;18.896;-99.222;2022-12-08T14:27:05;167.48;;;61.13;;
12412;SDS011;13877;18.896;-99.222;2022-12-08T14:29:37;216.65;;;39.28;;
12412;SDS011;13877;18.896;-99.222;2022-12-08T14:32:20;0.38;;;0.38;;
12412;SDS011;13877;18.896;-99.222;2022-12-08T14:37:27;31.25;;;12.93;;
12412;SDS011;13877;18.896;-99.222;2022-12-08T14:39:59;20.95;;;10.60;;
12412;SDS011;13877;18.896;-99.222;2022-12-08T14:42:40;16.70;;;10.23;;
12412;SDS011;13877;18.896;-99.222;2022-12-08T14:45:10;20.05;;;9.30;;
12412;SDS011;13877;18.896;-99.222;2022-12-08T14:47:39;16.95;;;9.35;;
12412;SDS011;13877;18.896;-99.222;2022-12-08T14:53:15;16.30;;;8.38;;
12412;SDS011;13877;18.896;-99.222;2022-12-08T14:55:44;19.30;;;9.85;;
12412;SDS011;13877;18.896;-99.222;2022-12-08T14:58:19;20.90;;;9.45;;
12412;SDS011;13877;18.896;-99.222;2022-12-08T15:00:57;15.13;;;8.82;;
12412;SDS011;13877;18.896;-99.222;2022-12-08T15:03:26;17.73;;;7.88;;
12412;SDS011;13877;18.896;-99.222;2022-12-08T15:05:58;19.33;;;8.65;;
12412;SDS011;13877;18.896;-99.222;2022-12-08T15:08:29;15.18;;;8.07;;
12412;SDS011;13877;18.896;-99.222;2022-12-08T15:11:23;17.27;;;11.27;;
12412;SDS011;13877;18.896;-99.222;2022-12-08T15:13:56;14.13;;;8.32;;
12412;SDS011;13877;18.896;-99.222;2022-12-08T15:19:03;19.13;;;9.75;;
12412;SDS011;13877;18.896;-99.222;2022-12-08T15:21:42;23.35;;;10.80;;
12412;SDS011;13877;18.896;-99.222;2022-12-08T15:24:11;22.98;;;10.23;;
12412;SDS011;13877;18.896;-99.222;2022-12-08T15:26:40;23.73;;;10.32;;
12412;SDS011;13877;18.896;-99.222;2022-12-08T15:29:18;15.65;;;9.57;;
12412;SDS011;13877;18.896;-99.222;2022-12-08T15:31:47;19.27;;;10.13;;
12412;SDS011;13877;18.896;-99.222;2022-12-08T15:34:14;21.60;;;9.77;;
12412;SDS011;13877;18.896;-99.222;2022-12-08T15:36:41;17.35;;;9.90;;
12412;SDS011;13877;18.896;-99.222;2022-12-08T15:39:19;35.70;;;12.75;;
12412;SDS011;13877;18.896;-99.222;2022-12-08T15:42:01;22.05;;;12.15;;
12412;SDS011;13877;18.896;-99.222;2022-12-08T15:44:29;26.63;;;13.88;;
12412;SDS011;13877;18.896;-99.222;2022-12-08T15:46:57;21.85;;;10.70;;
12412;SDS011;13877;18.896;-99.222;2022-12-08T15:49:25;20.08;;;9.25;;
12412;SDS011;13877;18.896;-99.222;2022-12-08T15:51:54;25.50;;;10.68;;
12412;SDS011;13877;18.896;-99.222;2022-12-08T15:54:21;32.20;;;9.25;;
12412;SDS011;13877;18.896;-99.222;2022-12-08T15:56:48;25.25;;;9.73;;
12412;SDS011;13877;18.896;-99.222;2022-12-08T15:59:18;20.50;;;9.63;;
12412;SDS011;13877;18.896;-99.222;2022-12-08T16:01:48;20.88;;;9.98;;
12412;SDS011;13877;18.896;-99.222;2022-12-08T16:04:16;14.77;;;8.63;;
12412;SDS011;13877;18.896;-99.222;2022-12-08T16:06:46;14.17;;;8.53;;
12412;SDS011;13877;18.896;-99.222;2022-12-08T16:09:36;16.58;;;8.68;;
12412;SDS011;13877;18.896;-99.222;2022-12-08T16:12:17;17.98;;;10.93;;
12412;SDS011;13877;18.896;-99.222;2022-12-08T16:15:04;18.20;;;10.25;;
12412;SDS011;13877;18.896;-99.222;2022-12-08T16:17:32;12.70;;;7.82;;
12412;SDS011;13877;18.896;-99.222;2022-12-08T16:20:00;18.80;;;8.93;;
12412;SDS011;13877;18.896;-99.222;2022-12-08T16:22:29;21.30;;;10.63;;
12412;SDS011;13877;18.896;-99.222;2022-12-08T16:24:58;20.73;;;10.23;;
12412;SDS011;13877;18.896;-99.222;2022-12-08T16:27:28;17.83;;;9.38;;
12412;SDS011;13877;18.896;-99.222;2022-12-08T16:29:58;12.90;;;7.65;;
12412;SDS011;13877;18.896;-99.222;2022-12-08T16:32:25;23.05;;;9.10;;
12412;SDS011;13877;18.896;-99.222;2022-12-08T16:34:53;15.65;;;8.27;;
12412;SDS011;13877;18.896;-99.222;2022-12-08T16:37:21;11.88;;;7.18;;
12412;SDS011;13877;18.896;-99.222;2022-12-08T16:39:49;14.32;;;7.72;;
12412;SDS011;13877;18.896;-99.222;2022-12-08T16:42:19;18.75;;;9.80;;
12412;SDS011;13877;18.896;-99.222;2022-12-08T16:47:53;16.25;;;8.95;;